createdAt,value
2023-05-19T00:01:37.633Z,101247.06
2023-05-19T00:04:26.809Z,101248.72
2023-05-19T00:07:20.717Z,101245.25
2023-05-19T00:10:10.853Z,101243.22
2023-05-19T00:13:00.167Z,101247.72
2023-05-19T00:15:49.281Z,101240.03
2023-05-19T00:18:37.978Z,101245.53
2023-05-19T00:21:26.654Z,101247.69
2023-05-19T00:24:16.741Z,101243.81
2023-05-19T00:27:05.822Z,101229.38
2023-05-19T00:29:54.551Z,101234.44
2023-05-19T00:32:43.197Z,101231.66
2023-05-19T00:35:31.978Z,101233.84
2023-05-19T00:38:20.694Z,101229.88
2023-05-19T00:41:10.970Z,101234.56
2023-05-19T00:43:59.776Z,101236.38
2023-05-19T00:46:48.447Z,101231.53
2023-05-19T00:49:37.575Z,101230.22
2023-05-19T00:52:26.671Z,101231.25
2023-05-19T00:55:15.414Z,101234.88
2023-05-19T00:58:07.231Z,101238.69
2023-05-19T01:01:02.834Z,101227.19
2023-05-19T01:03:51.790Z,101232.41
2023-05-19T01:06:41.943Z,101226.59
2023-05-19T01:09:32.249Z,101224.94
2023-05-19T01:12:21.074Z,101236.91
2023-05-19T01:15:12.526Z,101227.59
2023-05-19T01:18:08.498Z,101231.44
2023-05-19T01:21:14.035Z,101230.28
2023-05-19T01:24:24.213Z,101223.63
2023-05-19T01:27:34.041Z,101215.78
2023-05-19T01:30:28.714Z,101219.47
2023-05-19T01:33:19.032Z,101222.13
2023-05-19T01:36:10.276Z,101221.28
2023-05-19T01:39:04.035Z,101220.28
2023-05-19T01:41:54.027Z,101226.47
2023-05-19T01:44:43.509Z,101230.31
2023-05-19T01:47:34.303Z,101228.00
2023-05-19T01:50:23.474Z,101228.97
2023-05-19T01:53:12.588Z,101224.31
2023-05-19T01:56:01.538Z,101226.81
2023-05-19T01:58:56.660Z,101229.28
2023-05-19T02:01:53.295Z,101224.44
2023-05-19T02:04:49.943Z,101224.31
2023-05-19T02:07:45.844Z,101213.66
2023-05-19T02:10:38.851Z,101220.16
2023-05-19T02:13:31.566Z,101220.16
2023-05-19T02:16:22.199Z,101213.66
2023-05-19T02:19:22.126Z,101212.34
2023-05-19T02:22:12.265Z,101215.31
2023-05-19T02:25:01.244Z,101215.00
2023-05-19T02:27:49.899Z,101215.66
2023-05-19T02:30:38.628Z,101218.03
2023-05-19T02:33:27.578Z,101209.31
2023-05-19T02:36:17.442Z,101217.47
2023-05-19T02:39:07.527Z,101219.50
2023-05-19T02:41:56.467Z,101216.03
2023-05-19T02:44:45.109Z,101219.69
2023-05-19T02:47:36.138Z,101218.03
2023-05-19T02:50:25.634Z,101212.34
2023-05-19T02:53:14.304Z,101215.00
2023-05-19T02:56:04.524Z,101211.69
2023-05-19T02:58:53.236Z,101207.69
2023-05-19T03:01:41.927Z,101211.38
2023-05-19T03:04:31.154Z,101204.84
2023-05-19T03:07:25.278Z,101206.88
2023-05-19T03:10:14.127Z,101203.69
2023-05-19T03:13:04.162Z,101200.69
2023-05-19T03:15:52.854Z,101190.03
2023-05-19T03:18:42.315Z,101182.66
2023-05-19T03:21:32.072Z,101188.69
2023-05-19T03:24:20.962Z,101200.34
2023-05-19T03:27:09.616Z,101198.69
2023-05-19T03:30:00.008Z,101203.72
2023-05-19T03:32:48.735Z,101209.22
2023-05-19T03:35:37.464Z,101204.88
2023-05-19T03:38:26.276Z,101208.41
2023-05-19T03:41:14.974Z,101210.88
2023-05-19T03:44:03.704Z,101209.56
2023-05-19T03:46:53.781Z,101211.72
2023-05-19T03:49:42.433Z,101212.09
2023-05-19T03:52:31.119Z,101216.06
2023-05-19T03:55:21.434Z,101214.56
2023-05-19T03:58:14.565Z,101218.72
2023-05-19T04:01:03.485Z,101220.72
2023-05-19T04:03:53.530Z,101213.41
2023-05-19T04:06:42.269Z,101209.75
2023-05-19T04:09:32.485Z,101213.75
2023-05-19T04:12:21.206Z,101216.06
2023-05-19T04:15:12.012Z,101215.75
2023-05-19T04:18:00.772Z,101217.09
2023-05-19T04:20:51.170Z,101216.06
2023-05-19T04:23:39.817Z,101215.41
2023-05-19T04:26:34.041Z,101220.09
2023-05-19T04:29:24.264Z,101216.41
2023-05-19T04:32:17.648Z,101216.56
2023-05-19T04:35:07.197Z,101217.22
2023-05-19T04:37:57.225Z,101225.75
2023-05-19T04:40:46.108Z,101221.41
2023-05-19T04:43:34.723Z,101220.97
2023-05-19T04:46:24.539Z,101216.75
2023-05-19T04:49:14.501Z,101215.63
2023-05-19T04:52:03.385Z,101209.09
2023-05-19T04:54:53.445Z,101213.59
2023-05-19T04:57:42.234Z,101213.25
2023-05-19T05:00:31.255Z,101212.09
2023-05-19T05:03:22.969Z,101215.06
2023-05-19T05:06:12.141Z,101220.59
2023-05-19T05:09:01.047Z,101214.22
2023-05-19T05:11:52.967Z,101223.00
2023-05-19T05:14:42.168Z,101218.97
2023-05-19T05:17:32.649Z,101214.94
2023-05-19T05:20:22.522Z,101212.97
2023-05-19T05:23:14.471Z,101212.16
2023-05-19T05:26:11.486Z,101221.97
2023-05-19T05:29:01.704Z,101219.94
2023-05-19T05:31:50.386Z,101217.94
2023-05-19T05:34:40.985Z,101222.25
2023-05-19T05:37:29.683Z,101222.56
2023-05-19T05:40:18.520Z,101232.19
2023-05-19T05:43:07.176Z,101220.81
2023-05-19T05:45:57.271Z,101223.69
2023-05-19T05:48:46.508Z,101229.72
2023-05-19T05:51:35.826Z,101228.00
2023-05-19T05:54:26.415Z,101229.34
2023-05-19T05:57:15.541Z,101220.19
2023-05-19T06:00:07.253Z,101226.88
2023-05-19T06:02:59.212Z,101235.25
2023-05-19T06:05:48.264Z,101236.91
2023-05-19T06:08:36.859Z,101232.41
2023-05-19T06:11:26.153Z,101232.28
2023-05-19T06:14:14.878Z,101230.28
2023-05-19T06:17:03.471Z,101223.94
2023-05-19T06:19:53.526Z,101231.94
2023-05-19T06:22:42.315Z,101231.63
2023-05-19T06:25:31.325Z,101230.63
2023-05-19T06:28:20.173Z,101229.78
2023-05-19T06:31:09.097Z,101227.06
2023-05-19T06:33:57.883Z,101224.94
2023-05-19T06:36:48.118Z,101217.44
2023-05-19T06:39:36.820Z,101213.91
2023-05-19T06:42:25.593Z,101212.41
2023-05-19T06:45:14.681Z,101217.44
2023-05-19T06:48:03.377Z,101213.22
2023-05-19T06:50:52.099Z,101227.31
2023-05-19T06:53:42.239Z,101214.22
2023-05-19T06:56:30.936Z,101207.75
2023-05-19T06:59:21.840Z,101211.28
2023-05-19T07:02:10.766Z,101212.59
2023-05-19T07:04:59.574Z,101204.63
2023-05-19T07:07:48.212Z,101213.00
2023-05-19T07:10:38.485Z,101208.00
2023-05-19T07:13:27.731Z,101196.69
2023-05-19T07:16:16.556Z,101207.88
2023-05-19T07:19:05.477Z,101208.41
2023-05-19T07:21:54.901Z,101200.44
2023-05-19T07:24:43.543Z,101210.09
2023-05-19T07:27:33.724Z,101201.09
2023-05-19T07:30:22.750Z,101196.75
2023-05-19T07:33:11.633Z,101198.75
2023-05-19T07:36:00.437Z,101201.72
2023-05-19T07:38:49.103Z,101190.75
2023-05-19T07:41:37.805Z,101184.06
2023-05-19T07:44:28.192Z,101176.44
2023-05-19T07:47:16.936Z,101180.22
2023-05-19T07:50:06.113Z,101188.06
2023-05-19T07:52:54.961Z,101187.56
2023-05-19T07:55:43.664Z,101185.69
2023-05-19T07:58:32.538Z,101188.97
2023-05-19T08:01:22.660Z,101179.34
2023-05-19T08:04:13.179Z,101177.19
2023-05-19T08:07:02.095Z,101173.41
2023-05-19T08:09:50.822Z,101186.09
2023-05-19T08:12:39.502Z,101187.75
2023-05-19T08:15:28.268Z,101182.09
2023-05-19T08:18:18.388Z,101174.72
2023-05-19T08:21:07.440Z,101178.41
2023-05-19T08:23:57.042Z,101184.06
2023-05-19T08:26:46.246Z,101186.41
2023-05-19T08:29:34.950Z,101185.41
2023-05-19T08:32:23.642Z,101180.75
2023-05-19T08:35:13.771Z,101176.91
2023-05-19T08:38:02.511Z,101175.06
2023-05-19T08:40:51.249Z,101171.75
2023-05-19T08:43:40.438Z,101163.41
2023-05-19T08:46:31.532Z,101173.75
2023-05-19T08:49:25.733Z,101168.56
2023-05-19T08:52:26.880Z,101160.41
2023-05-19T08:55:27.768Z,101155.72
2023-05-19T08:58:20.327Z,101169.06
2023-05-19T09:01:10.035Z,101171.94
2023-05-19T09:03:59.468Z,101169.41
2023-05-19T09:06:48.329Z,101169.91
2023-05-19T09:09:40.793Z,101160.75
2023-05-19T09:12:29.575Z,101159.78
2023-05-19T09:15:21.935Z,101161.72
2023-05-19T09:18:12.352Z,101163.88
2023-05-19T09:21:02.998Z,101157.06
2023-05-19T09:23:52.804Z,101151.38
2023-05-19T09:26:45.362Z,101142.34
2023-05-19T09:29:34.364Z,101138.31
2023-05-19T09:32:27.574Z,101143.84
2023-05-19T09:35:17.296Z,101135.84
2023-05-19T09:38:06.373Z,101146.31
2023-05-19T09:40:55.366Z,101145.81
2023-05-19T09:43:46.232Z,101147.47
2023-05-19T09:46:35.942Z,101137.31
2023-05-19T09:49:29.495Z,101132.28
2023-05-19T09:52:18.249Z,101139.28
2023-05-19T09:55:11.166Z,101125.75
2023-05-19T09:58:03.759Z,101132.91
2023-05-19T10:00:55.513Z,101132.91
2023-05-19T10:03:44.345Z,101125.53
2023-05-19T10:06:33.537Z,101119.00
2023-05-19T10:09:25.165Z,101115.78
2023-05-19T10:12:14.756Z,101117.00
2023-05-19T10:15:04.229Z,101117.66
2023-05-19T10:17:54.729Z,101123.63
2023-05-19T10:20:44.036Z,101126.81
2023-05-19T10:23:32.710Z,101126.47
2023-05-19T10:26:21.793Z,101121.13
2023-05-19T10:29:11.924Z,101109.16
2023-05-19T10:32:06.605Z,101110.13
2023-05-19T10:35:21.977Z,101103.81
2023-05-19T10:38:22.995Z,101105.47
2023-05-19T10:41:15.522Z,101090.41
2023-05-19T10:44:11.575Z,101091.75
2023-05-19T10:47:00.360Z,101089.94
2023-05-19T10:49:49.209Z,101095.75
2023-05-19T10:52:40.960Z,101097.53
2023-05-19T10:55:52.045Z,101097.06
2023-05-19T10:58:52.114Z,101102.38
2023-05-19T11:01:41.625Z,101098.53
2023-05-19T11:04:41.814Z,101095.03
2023-05-19T11:07:30.770Z,101100.38
2023-05-19T11:10:25.201Z,101105.00
2023-05-19T11:13:22.978Z,101101.69
2023-05-19T11:16:12.459Z,101100.31
2023-05-19T11:19:01.980Z,101102.31
2023-05-19T11:21:52.448Z,101105.06
2023-05-19T11:24:46.198Z,101096.06
2023-05-19T11:27:40.194Z,101088.25
2023-05-19T11:30:28.908Z,101084.78
2023-05-19T11:33:19.851Z,101080.66
2023-05-19T11:36:10.145Z,101079.75
2023-05-19T11:39:00.497Z,101079.47
2023-05-19T11:41:49.119Z,101087.78
2023-05-19T11:44:41.129Z,101086.81
2023-05-19T11:47:32.048Z,101083.13
2023-05-19T11:50:25.944Z,101079.28
2023-05-19T11:53:17.389Z,101079.00
2023-05-19T11:56:07.865Z,101078.28
2023-05-19T11:58:56.635Z,101072.75
2023-05-19T12:01:46.883Z,101075.78
2023-05-19T12:04:35.622Z,101077.47
2023-05-19T12:07:26.155Z,101089.44
2023-05-19T12:10:14.790Z,101087.78
2023-05-19T12:13:08.943Z,101086.59
2023-05-19T12:16:02.181Z,101090.81
2023-05-19T12:18:52.307Z,101088.03
2023-05-19T12:21:41.367Z,101082.06
2023-05-19T12:24:32.468Z,101083.72
2023-05-19T12:27:22.351Z,101080.50
2023-05-19T12:30:12.867Z,101074.31
2023-05-19T12:33:03.247Z,101075.53
2023-05-19T12:35:53.638Z,101057.38
2023-05-19T12:38:42.375Z,101073.66
2023-05-19T12:41:31.893Z,101072.31
2023-05-19T12:44:20.805Z,101082.53
2023-05-19T12:47:09.535Z,101074.41
2023-05-19T12:50:02.189Z,101072.47
2023-05-19T12:52:52.264Z,101074.78
2023-05-19T12:55:43.134Z,101078.38
2023-05-19T12:58:35.310Z,101071.09
2023-05-19T13:01:25.187Z,101065.09
2023-05-19T13:04:14.060Z,101062.25
2023-05-19T13:07:02.825Z,101063.44
2023-05-19T13:09:52.916Z,101061.63
2023-05-19T13:12:41.481Z,101060.03
2023-05-19T13:15:34.245Z,101054.63
2023-05-19T13:18:23.068Z,101055.81
2023-05-19T13:21:11.730Z,101054.72
2023-05-19T13:24:00.462Z,101058.47
2023-05-19T13:26:50.520Z,101062.06
2023-05-19T13:29:39.162Z,101067.31
2023-05-19T13:32:27.922Z,101060.22
2023-05-19T13:35:16.898Z,101064.66
2023-05-19T13:38:06.157Z,101052.75
2023-05-19T13:40:55.080Z,101059.75
2023-05-19T13:43:45.187Z,101063.34
2023-05-19T13:46:44.572Z,101058.19
2023-05-19T13:49:34.547Z,101061.34
2023-05-19T13:52:23.864Z,101055.72
2023-05-19T13:55:12.520Z,101051.72
2023-05-19T13:58:01.231Z,101060.34
2023-05-19T14:00:54.639Z,101057.56
2023-05-19T14:03:44.731Z,101058.19
2023-05-19T14:06:33.462Z,101052.22
2023-05-19T14:09:22.243Z,101048.53
2023-05-19T14:12:12.192Z,101053.13
2023-05-19T14:15:02.625Z,101052.50
2023-05-19T14:17:53.228Z,101054.88
2023-05-19T14:20:41.935Z,101054.13
2023-05-19T14:23:30.980Z,101050.75
2023-05-19T14:26:19.693Z,101060.97
2023-05-19T14:29:08.613Z,101051.72
2023-05-19T14:31:57.380Z,101058.50
2023-05-19T14:34:47.649Z,101057.41
2023-05-19T14:37:36.390Z,101050.19
2023-05-19T14:40:25.014Z,101044.72
2023-05-19T14:43:13.744Z,101041.34
2023-05-19T14:46:02.551Z,101046.13
2023-05-19T14:48:51.160Z,101045.53
2023-05-19T14:51:41.112Z,101046.75
2023-05-19T14:54:29.814Z,101048.03
2023-05-19T14:57:18.454Z,101053.53
2023-05-19T15:00:09.223Z,101053.13
2023-05-19T15:03:00.099Z,101046.00
2023-05-19T15:05:49.375Z,101057.28
2023-05-19T15:08:40.769Z,101058.22
2023-05-19T15:11:29.444Z,101058.97
2023-05-19T15:14:18.111Z,101064.91
2023-05-19T15:17:07.199Z,101064.06
2023-05-19T15:19:55.866Z,101059.03
2023-05-19T15:22:44.510Z,101074.41
2023-05-19T15:25:34.557Z,101077.88
2023-05-19T15:28:23.189Z,101085.25
2023-05-19T15:31:11.916Z,101069.06
2023-05-19T15:34:00.676Z,101077.72
2023-05-19T15:36:49.340Z,101079.00
2023-05-19T15:39:38.085Z,101075.31
2023-05-19T15:42:28.104Z,101071.94
2023-05-19T15:45:16.697Z,101075.00
2023-05-19T15:48:05.836Z,101073.78
2023-05-19T15:50:54.516Z,101076.28
2023-05-19T15:53:43.205Z,101085.56
2023-05-19T15:56:31.920Z,101080.06
2023-05-19T15:59:21.972Z,101081.59
2023-05-19T16:02:13.232Z,101081.25
2023-05-19T16:05:02.020Z,101090.75
2023-05-19T16:07:50.878Z,101083.50
2023-05-19T16:10:39.593Z,101093.59
2023-05-19T16:13:28.340Z,101099.94
2023-05-19T16:16:18.852Z,101107.31
2023-05-19T16:19:07.720Z,101100.84
2023-05-19T16:21:56.476Z,101109.03
2023-05-19T16:24:45.220Z,101106.53
2023-05-19T16:27:33.839Z,101115.19
2023-05-19T16:30:23.125Z,101110.69
2023-05-19T16:33:13.300Z,101106.94
2023-05-19T16:36:02.153Z,101110.94
2023-05-19T16:38:50.911Z,101104.78
2023-05-19T16:41:40.950Z,101109.28
2023-05-19T16:44:29.618Z,101114.34
2023-05-19T16:47:18.337Z,101116.53
2023-05-19T16:50:09.523Z,101125.06
2023-05-19T16:52:58.248Z,101118.22
2023-05-19T16:55:46.969Z,101118.53
2023-05-19T16:58:36.011Z,101125.88
2023-05-19T17:01:24.886Z,101116.50
2023-05-19T17:04:13.603Z,101110.59
2023-05-19T17:07:03.628Z,101116.00
2023-05-19T17:09:54.469Z,101113.44
2023-05-19T17:12:44.524Z,101097.63
2023-05-19T17:15:35.075Z,101099.78
2023-05-19T17:18:23.769Z,101105.84
2023-05-19T17:21:13.461Z,101094.00
2023-05-19T17:24:03.541Z,101099.22
2023-05-19T17:26:52.417Z,101105.47
2023-05-19T17:29:41.179Z,101098.72
2023-05-19T17:32:35.718Z,101109.63
2023-05-19T17:35:25.550Z,101115.22
2023-05-19T17:38:15.053Z,101115.88
2023-05-19T17:41:09.777Z,101110.53
2023-05-19T17:43:58.750Z,101118.88
2023-05-19T17:46:47.525Z,101119.47
2023-05-19T17:49:36.174Z,101113.66
2023-05-19T17:52:25.756Z,101117.50
2023-05-19T17:55:15.500Z,101121.22
2023-05-19T17:58:06.065Z,101115.78
2023-05-19T18:00:55.619Z,101113.63
2023-05-19T18:03:49.439Z,101114.53
2023-05-19T18:06:39.126Z,101110.22
2023-05-19T18:09:29.612Z,101112.19
2023-05-19T18:12:18.301Z,101113.00
2023-05-19T18:15:13.197Z,101107.34
2023-05-19T18:18:03.015Z,101102.84
2023-05-19T18:20:51.944Z,101103.78
2023-05-19T18:23:40.563Z,101107.03
2023-05-19T18:26:29.244Z,101106.84
2023-05-19T18:29:17.931Z,101109.22
2023-05-19T18:32:14.486Z,101110.22
2023-05-19T18:35:03.574Z,101108.31
2023-05-19T18:37:52.247Z,101109.97
2023-05-19T18:40:44.573Z,101115.69
2023-05-19T18:43:34.273Z,101112.41
2023-05-19T18:46:23.168Z,101110.59
2023-05-19T18:49:13.426Z,101116.06
2023-05-19T18:52:02.123Z,101120.66
2023-05-19T18:54:50.841Z,101119.94
2023-05-19T18:57:39.445Z,101112.94
2023-05-19T19:00:28.620Z,101119.03
2023-05-19T19:03:17.539Z,101122.16
2023-05-19T19:06:07.817Z,101121.56
2023-05-19T19:08:56.462Z,101125.59
2023-05-19T19:11:45.264Z,101112.13
2023-05-19T19:14:34.468Z,101124.88
2023-05-19T19:17:23.215Z,101129.84
2023-05-19T19:20:12.820Z,101123.84
2023-05-19T19:23:05.790Z,101132.03
2023-05-19T19:25:56.437Z,101125.78
2023-05-19T19:28:45.408Z,101132.84
2023-05-19T19:31:34.181Z,101125.09
2023-05-19T19:34:22.904Z,101127.41
2023-05-19T19:37:11.540Z,101133.53
2023-05-19T19:40:01.879Z,101131.53
2023-05-19T19:42:50.581Z,101132.28
2023-05-19T19:45:39.881Z,101123.84
2023-05-19T19:48:30.764Z,101128.34
2023-05-19T19:51:19.432Z,101125.69
2023-05-19T19:54:10.220Z,101122.09
2023-05-19T19:57:00.320Z,101130.69
2023-05-19T19:59:55.244Z,101122.09
2023-05-19T20:03:02.937Z,101127.81
2023-05-19T20:05:52.960Z,101130.59
2023-05-19T20:08:41.713Z,101139.25
2023-05-19T20:11:30.503Z,101127.53
2023-05-19T20:14:20.669Z,101125.13
2023-05-19T20:17:09.311Z,101124.56
2023-05-19T20:20:04.650Z,101135.25
2023-05-19T20:22:53.320Z,101133.69
2023-05-19T20:25:58.514Z,101126.59
2023-05-19T20:28:51.634Z,101135.53
2023-05-19T20:31:41.662Z,101138.22
2023-05-19T20:34:30.878Z,101138.03
2023-05-19T20:37:21.532Z,101134.28
2023-05-19T20:40:11.755Z,101132.03
2023-05-19T20:43:00.826Z,101131.50
2023-05-19T20:45:49.691Z,101128.34
2023-05-19T20:48:39.719Z,101137.38
2023-05-19T20:51:28.373Z,101132.88
2023-05-19T20:54:19.574Z,101142.09
2023-05-19T20:57:09.364Z,101133.13
2023-05-19T20:59:58.022Z,101135.25
2023-05-19T21:02:46.788Z,101135.81
2023-05-19T21:05:37.939Z,101130.94
2023-05-19T21:08:27.158Z,101125.97
2023-05-19T21:11:15.763Z,101124.31
2023-05-19T21:14:05.011Z,101124.50
2023-05-19T21:16:54.826Z,101133.31
2023-05-19T21:19:43.600Z,101129.66
2023-05-19T21:22:35.787Z,101133.50
2023-05-19T21:25:24.506Z,101130.16
2023-05-19T21:28:13.110Z,101131.47
2023-05-19T21:31:01.830Z,101133.50
2023-05-19T21:33:50.528Z,101138.47
2023-05-19T21:36:39.166Z,101130.16
2023-05-19T21:39:29.194Z,101135.53
2023-05-19T21:42:17.986Z,101141.63
2023-05-19T21:45:07.697Z,101136.19
2023-05-19T21:47:56.330Z,101141.03
2023-05-19T21:50:45.036Z,101134.78
2023-05-19T21:53:33.771Z,101138.94
2023-05-19T21:56:24.028Z,101132.25
2023-05-19T21:59:12.754Z,101132.00
2023-05-19T22:02:03.780Z,101126.47
2023-05-19T22:04:52.527Z,101129.81
2023-05-19T22:07:41.230Z,101131.47
2023-05-19T22:10:29.880Z,101127.84
2023-05-19T22:13:20.090Z,101116.88
2023-05-19T22:16:09.358Z,101120.06
2023-05-19T22:18:58.282Z,101126.88
2023-05-19T22:21:50.376Z,101131.09
2023-05-19T22:24:42.671Z,101123.44
2023-05-19T22:27:31.453Z,101127.41
2023-05-19T22:30:21.700Z,101132.03
2023-05-19T22:33:11.493Z,101124.31
2023-05-19T22:36:00.215Z,101128.16
2023-05-19T22:38:48.849Z,101122.88
2023-05-19T22:41:37.488Z,101122.88
2023-05-19T22:44:26.379Z,101120.72
2023-05-19T22:47:16.409Z,101128.09
2023-05-19T22:50:05.664Z,101122.53
2023-05-19T22:52:54.277Z,101122.38
2023-05-19T22:55:43.089Z,101117.31
2023-05-19T22:58:31.741Z,101113.53
2023-05-19T23:01:20.444Z,101110.94
2023-05-19T23:04:11.469Z,101106.28
2023-05-19T23:07:00.325Z,101108.41
2023-05-19T23:09:50.025Z,101111.16
2023-05-19T23:12:40.071Z,101112.69
2023-05-19T23:15:28.767Z,101110.41
2023-05-19T23:18:17.446Z,101111.03
2023-05-19T23:21:07.722Z,101113.91
2023-05-19T23:23:56.395Z,101115.72
2023-05-19T23:26:45.488Z,101121.59
2023-05-19T23:29:34.232Z,101124.81
2023-05-19T23:32:22.905Z,101126.03
2023-05-19T23:35:13.288Z,101119.47
2023-05-19T23:38:03.376Z,101126.13
2023-05-19T23:40:52.191Z,101125.66
2023-05-19T23:43:40.920Z,101120.69
2023-05-19T23:46:29.647Z,101114.50
2023-05-19T23:49:19.753Z,101119.34
2023-05-19T23:52:08.510Z,101115.56
2023-05-19T23:54:58.603Z,101121.75
2023-05-19T23:57:47.337Z,101127.88
